Time;durP1;ratioP1;P1;durP2;ratioP2;P2;SDS_P1;SDS_P2;PMS_P1;PMS_P2;Temp;Humidity;BMP_temperature;BMP_pressure;BME280_temperature;BME280_humidity;BME280_pressure;Samples;Min_cycle;Max_cycle;Signal;HPM_P1;HPM_P2
2021/09/02 00:00:13;;;;;;;;;14.75;13.25;;;;;16.33;67.50;102235.84;5031987;28;64418;-76
2021/09/02 00:02:38;;;;;;;;;14.25;14.00;;;;;16.31;67.65;102231.56;5033095;28;45363;-77
2021/09/02 00:05:04;;;;;;;;;15.25;15.00;;;;;16.26;68.12;102222.94;5037291;28;45574;-76
2021/09/02 00:07:30;;;;;;;;;18.75;15.75;;;;;16.31;67.97;102242.16;5036371;28;45384;-75
2021/09/02 00:09:55;;;;;;;;;15.50;13.00;;;;;16.29;67.56;102244.88;5037094;28;45569;-76
2021/09/02 00:12:20;;;;;;;;;20.75;13.00;;;;;16.29;67.95;102250.19;5039792;28;45352;-75
2021/09/02 00:14:46;;;;;;;;;13.00;13.00;;;;;16.27;68.14;102244.06;5036098;28;45356;-76
2021/09/02 00:17:12;;;;;;;;;17.25;14.50;;;;;16.27;68.18;102244.06;5037088;28;45458;-76
2021/09/02 00:19:37;;;;;;;;;13.25;12.50;;;;;16.21;67.92;102231.06;5035826;28;47001;-76
2021/09/02 00:22:03;;;;;;;;;15.25;10.25;;;;;16.22;67.45;102235.44;5036414;28;45517;-75
2021/09/02 00:24:29;;;;;;;;;18.75;13.00;;;;;16.15;68.23;102226.03;5039817;28;45619;-76
2021/09/02 00:26:54;;;;;;;;;15.00;13.00;;;;;16.10;67.75;102218.28;5035763;28;45499;-76
2021/09/02 00:29:19;;;;;;;;;16.00;13.50;;;;;16.14;68.53;102225.19;5036298;28;46088;-76
2021/09/02 00:31:45;;;;;;;;;23.25;16.50;;;;;16.11;68.07;102227.09;5035368;28;50209;-76
2021/09/02 00:34:10;;;;;;;;;14.25;11.50;;;;;16.09;68.48;102221.00;5018551;28;45527;-76
2021/09/02 00:36:35;;;;;;;;;19.50;15.25;;;;;16.02;67.79;102208.91;5035339;28;46418;-75
2021/09/02 00:39:01;;;;;;;;;13.50;12.00;;;;;15.98;69.00;102210.84;5035954;28;47428;-76
2021/09/02 00:41:26;;;;;;;;;16.25;14.50;;;;;15.99;68.88;102217.00;5035146;28;45475;-76
2021/09/02 00:43:52;;;;;;;;;17.00;13.75;;;;;15.99;68.61;102204.59;5035702;28;46223;-76
2021/09/02 00:46:17;;;;;;;;;20.00;15.00;;;;;15.94;68.96;102201.28;5037558;28;45278;-76
2021/09/02 00:48:50;;;;;;;;;19.50;17.50;;;;;15.81;69.20;102184.16;5035381;28;45519;-76
2021/09/02 00:51:17;;;;;;;;;15.75;11.00;;;;;15.83;69.15;102193.78;5035769;28;45820;-76
2021/09/02 00:53:45;;;;;;;;;19.00;17.00;;;;;15.88;68.99;102210.38;5035914;28;45313;-76
2021/09/02 00:56:11;;;;;;;;;19.50;16.25;;;;;15.87;69.13;102213.94;5034331;28;45471;-76
2021/09/02 00:58:36;;;;;;;;;18.25;15.50;;;;;15.78;68.74;102203.72;5034843;28;45466;-76
2021/09/02 01:01:02;;;;;;;;;19.25;16.25;;;;;15.75;69.47;102200.31;5036201;28;45384;-75
2021/09/02 01:03:29;;;;;;;;;18.00;16.00;;;;;15.72;69.70;102196.03;5036886;28;45518;-76
2021/09/02 01:05:55;;;;;;;;;16.50;14.75;;;;;15.79;69.79;102208.09;5035448;28;45499;-76
2021/09/02 01:08:21;;;;;;;;;13.25;12.75;;;;;15.80;69.16;102211.59;5033772;28;46336;-76
2021/09/02 01:10:49;;;;;;;;;21.00;16.00;;;;;15.78;69.15;102202.84;5044495;28;45411;-76
2021/09/02 01:13:18;;;;;;;;;13.75;10.25;;;;;15.74;69.84;102206.56;5036208;28;45422;-76
2021/09/02 01:15:44;;;;;;;;;20.25;14.25;;;;;15.75;69.89;102210.94;5035119;28;45383;-76
2021/09/02 01:18:09;;;;;;;;;18.50;14.25;;;;;15.73;69.36;102211.00;5034403;28;45537;-76
2021/09/02 01:20:35;;;;;;;;;18.75;16.50;;;;;15.66;69.87;102201.59;5035360;28;45374;-76
2021/09/02 01:23:03;;;;;;;;;21.50;16.00;;;;;15.70;69.59;102207.59;5034588;28;45324;-76
2021/09/02 01:25:32;;;;;;;;;21.75;21.00;;;;;15.68;69.73;102206.81;5034772;28;45369;-75
2021/09/02 01:28:02;;;;;;;;;20.00;16.75;;;;;15.65;69.99;102203.34;5035063;28;46669;-76
2021/09/02 01:30:28;;;;;;;;;18.75;17.25;;;;;15.61;69.31;102195.56;5034435;28;45738;-76
2021/09/02 01:32:55;;;;;;;;;19.25;15.00;;;;;15.61;69.33;102195.56;5035259;28;45546;-75
2021/09/02 01:35:21;;;;;;;;;10.75;9.75;;;;;15.59;69.84;102194.75;5022955;28;45606;-76
2021/09/02 01:37:56;;;;;;;;;18.75;15.50;;;;;15.55;69.73;102185.19;5035056;28;45395;-76
2021/09/02 01:40:37;;;;;;;;;17.00;15.00;;;;;15.52;70.39;102198.59;5013809;28;46226;-76
2021/09/02 01:43:05;;;;;;;;;23.25;17.00;;;;;15.48;70.51;102197.84;5033792;28;45412;-75
2021/09/02 01:45:31;;;;;;;;;22.00;19.00;;;;;15.39;70.52;102175.22;5037882;28;45495;-75
2021/09/02 01:47:58;;;;;;;;;19.75;16.50;;;;;15.45;70.31;102183.84;5034766;28;46179;-76
2021/09/02 01:50:25;;;;;;;;;25.25;18.25;;;;;15.43;70.97;102180.41;5035322;28;45404;-76
2021/09/02 01:52:53;;;;;;;;;19.50;12.75;;;;;15.40;70.34;102187.56;5034592;28;45327;-76
2021/09/02 01:55:21;;;;;;;;;15.00;12.50;;;;;15.39;70.34;102182.31;5032330;28;45456;-76
2021/09/02 01:57:47;;;;;;;;;25.75;18.00;;;;;15.37;70.91;102184.16;5034512;28;45300;-75
2021/09/02 02:00:14;;;;;;;;;21.00;17.00;;;;;15.27;70.94;102170.41;5037513;28;45819;-76
2021/09/02 02:02:40;;;;;;;;;22.50;17.00;;;;;15.36;70.90;102187.75;5034562;28;45388;-75
2021/09/02 02:05:07;;;;;;;;;20.75;18.75;;;;;15.34;70.96;102187.78;5035359;28;45380;-75
2021/09/02 02:07:34;;;;;;;;;22.50;17.00;;;;;15.31;70.40;102187.94;5033945;28;45999;-76
2021/09/02 02:09:59;;;;;;;;;23.50;16.25;;;;;15.25;71.31;102184.66;5034377;28;46332;-76
2021/09/02 02:12:24;;;;;;;;;20.75;17.00;;;;;15.19;71.31;102167.22;5040795;28;50156;-76
2021/09/02 02:14:50;;;;;;;;;21.00;16.75;;;;;15.20;71.27;102170.75;5039357;28;45726;-76
2021/09/02 02:17:15;;;;;;;;;19.00;17.25;;;;;15.18;70.81;102170.78;5034531;28;45500;-75
2021/09/02 02:19:40;;;;;;;;;22.00;17.75;;;;;15.21;71.28;102180.41;5034545;28;45313;-75
2021/09/02 02:22:05;;;;;;;;;24.25;17.25;;;;;15.14;71.27;102161.25;5034029;28;45333;-76
2021/09/02 02:24:31;;;;;;;;;23.25;17.00;;;;;15.19;71.52;102169.88;5034274;28;45391;-76
2021/09/02 02:26:56;;;;;;;;;20.00;16.25;;;;;15.17;71.47;102165.56;5032722;28;46018;-76
2021/09/02 02:29:22;;;;;;;;;21.25;16.75;;;;;15.15;71.87;102162.97;5034064;28;45393;-76
2021/09/02 02:31:47;;;;;;;;;22.75;19.00;;;;;15.14;71.63;102155.97;5033889;28;45495;-75
2021/09/02 02:34:13;;;;;;;;;30.50;19.25;;;;;15.12;72.02;102157.78;5034620;28;46280;-76
2021/09/02 02:36:38;;;;;;;;;28.25;19.00;;;;;15.12;72.03;102160.44;5033433;28;46393;-76
2021/09/02 02:39:04;;;;;;;;;25.00;17.75;;;;;15.02;71.63;102151.97;5034378;28;45346;-75
2021/09/02 02:41:30;;;;;;;;;19.00;15.75;;;;;15.03;71.61;102147.53;5034055;28;45440;-75
2021/09/02 02:43:55;;;;;;;;;26.25;18.75;;;;;15.08;71.17;102157.03;5034076;28;45362;-75
2021/09/02 02:46:20;;;;;;;;;32.25;23.00;;;;;15.08;71.82;102159.69;5034466;28;46056;-75
2021/09/02 02:48:45;;;;;;;;;20.75;17.00;;;;;15.06;71.87;102158.03;5038400;28;45517;-76
2021/09/02 02:51:11;;;;;;;;;21.00;17.25;;;;;15.01;72.46;102150.25;5033282;28;45317;-75
2021/09/02 02:53:37;;;;;;;;;28.75;20.75;;;;;14.93;71.24;102140.88;5033392;28;45555;-76
2021/09/02 02:56:02;;;;;;;;;26.75;19.50;;;;;14.97;72.28;102147.78;5035555;28;45440;-75
2021/09/02 02:58:28;;;;;;;;;29.25;22.25;;;;;14.97;71.46;102150.44;5034029;28;45668;-75
2021/09/02 03:00:53;;;;;;;;;26.50;17.75;;;;;14.98;72.18;102154.81;5034280;28;45383;-74
2021/09/02 03:03:18;;;;;;;;;23.00;19.25;;;;;14.97;72.60;102150.44;5011987;28;45528;-75
2021/09/02 03:05:44;;;;;;;;;28.50;21.50;;;;;14.96;72.47;102146.06;5032316;28;45899;-75
2021/09/02 03:08:09;;;;;;;;;21.75;16.75;;;;;14.91;72.20;102132.16;5040058;28;45435;-75
2021/09/02 03:10:34;;;;;;;;;22.75;20.50;;;;;14.93;72.37;102143.53;5034041;28;45341;-75
2021/09/02 03:13:00;;;;;;;;;27.75;20.75;;;;;14.93;72.69;102143.53;5034246;28;45511;-75
2021/09/02 03:15:25;;;;;;;;;26.25;21.25;;;;;14.84;72.55;102132.38;5032339;28;54703;-76
2021/09/02 03:17:50;;;;;;;;;24.50;19.25;;;;;14.87;73.12;102134.03;5033507;28;45505;-75
2021/09/02 03:20:16;;;;;;;;;24.25;19.50;;;;;14.90;73.05;102138.38;5033423;28;45498;-75
2021/09/02 03:22:42;;;;;;;;;22.50;20.25;;;;;14.88;72.72;102144.59;5033703;28;45948;-76
2021/09/02 03:25:08;;;;;;;;;22.50;16.50;;;;;14.92;72.55;102141.81;5033567;28;45480;-75
2021/09/02 03:27:34;;;;;;;;;24.75;18.75;;;;;14.87;72.54;102142.84;5035884;28;45958;-75
2021/09/02 03:29:59;;;;;;;;;21.50;17.50;;;;;14.90;72.80;102141.03;5032916;28;45472;-75
2021/09/02 03:32:24;;;;;;;;;27.75;17.00;;;;;14.85;72.09;102133.25;5034897;28;55473;-75
2021/09/02 03:34:50;;;;;;;;;26.75;19.50;;;;;14.84;72.72;102135.03;5023219;28;45423;-75
2021/09/02 03:37:15;;;;;;;;;26.00;19.75;;;;;14.84;72.70;102129.75;5034555;28;45472;-75
2021/09/02 03:39:40;;;;;;;;;25.00;20.75;;;;;14.77;72.60;102120.31;5015785;28;45722;-75
2021/09/02 03:42:06;;;;;;;;;23.75;19.00;;;;;14.76;72.59;102117.72;5036777;28;45557;-75
2021/09/02 03:44:31;;;;;;;;;22.50;19.00;;;;;14.78;73.18;102126.47;5046957;28;45544;-75
2021/09/02 03:46:57;;;;;;;;;21.75;20.50;;;;;14.78;73.04;102132.63;5036158;28;58689;-75
2021/09/02 03:49:22;;;;;;;;;30.75;21.25;;;;;14.78;73.04;102126.47;5036646;28;45675;-76
2021/09/02 03:51:47;;;;;;;;;27.50;21.00;;;;;14.75;72.75;102124.78;5038401;28;45307;-76
2021/09/02 03:54:13;;;;;;;;;27.50;24.25;;;;;14.74;73.18;102109.00;5035641;28;51603;-75
2021/09/02 03:56:38;;;;;;;;;27.50;21.50;;;;;14.63;73.14;102096.16;5035794;28;55997;-75
2021/09/02 03:59:04;;;;;;;;;27.25;23.75;;;;;14.70;73.16;102105.59;5036436;28;47708;-76
2021/09/02 04:01:29;;;;;;;;;32.50;23.75;;;;;14.72;73.14;102108.16;5036774;28;45500;-75
2021/09/02 04:03:54;;;;;;;;;29.25;25.25;;;;;14.71;73.27;102117.03;5036544;28;46079;-75
2021/09/02 04:06:20;;;;;;;;;24.75;18.25;;;;;14.72;73.11;102119.63;5035998;28;45361;-75
2021/09/02 04:08:45;;;;;;;;;27.50;20.25;;;;;14.70;72.95;102128.53;5036318;28;45465;-75
2021/09/02 04:11:11;;;;;;;;;30.00;22.75;;;;;14.64;73.24;102123.47;5035453;28;45406;-75
2021/09/02 04:13:36;;;;;;;;;29.75;21.25;;;;;14.70;73.18;102141.78;5036323;28;45540;-75
2021/09/02 04:16:02;;;;;;;;;29.50;26.25;;;;;14.69;72.56;102143.56;5035930;28;45308;-75
2021/09/02 04:18:27;;;;;;;;;32.00;24.50;;;;;14.67;73.14;102139.22;5035857;28;45490;-75
2021/09/02 04:20:52;;;;;;;;;33.50;23.50;;;;;14.64;73.33;102144.66;5036162;28;45461;-76
2021/09/02 04:23:18;;;;;;;;;32.00;25.00;;;;;14.63;73.15;102132.34;5036392;28;46063;-75
2021/09/02 04:25:43;;;;;;;;;30.25;25.25;;;;;14.55;73.40;102135.25;5036064;28;45422;-75
2021/09/02 04:28:08;;;;;;;;;40.75;28.25;;;;;14.61;73.80;102146.47;5036147;28;45481;-75
2021/09/02 04:30:34;;;;;;;;;31.75;26.50;;;;;14.54;73.84;102131.75;5034777;28;45452;-76
2021/09/02 04:33:01;;;;;;;;;31.50;27.00;;;;;14.55;73.66;102132.63;5039513;28;45904;-76
2021/09/02 04:35:27;;;;;;;;;27.25;24.00;;;;;14.58;72.99;102141.31;5030284;28;47326;-75
2021/09/02 04:37:52;;;;;;;;;40.50;27.50;;;;;14.44;73.75;102110.97;5035176;28;45550;-75
2021/09/02 04:40:17;;;;;;;;;37.00;28.50;;;;;14.53;73.57;102137.97;5036491;28;45507;-75
2021/09/02 04:42:43;;;;;;;;;41.00;26.25;;;;;14.52;73.80;102135.41;5036156;28;45824;-75
2021/09/02 04:45:10;;;;;;;;;26.00;19.50;;;;;14.52;73.11;102138.03;5035784;28;45537;-75
2021/09/02 04:47:35;;;;;;;;;34.25;27.50;;;;;14.48;73.71;102133.78;5034865;28;45478;-75
2021/09/02 04:50:01;;;;;;;;;31.75;28.25;;;;;14.45;73.58;102131.19;5036879;28;45498;-75
2021/09/02 04:52:26;;;;;;;;;33.00;26.75;;;;;14.43;73.38;102133.91;5036072;28;45467;-75
2021/09/02 04:54:51;;;;;;;;;33.00;26.50;;;;;14.33;73.87;102112.22;5035995;28;45431;-75
2021/09/02 04:57:18;;;;;;;;;32.00;26.75;;;;;14.39;73.42;102121.72;5035170;28;45441;-74
2021/09/02 04:59:44;;;;;;;;;31.25;27.00;;;;;14.37;73.66;102126.22;5038912;28;45603;-74
2021/09/02 05:02:10;;;;;;;;;34.00;28.25;;;;;14.26;73.88;102105.44;5034943;28;46341;-74
2021/09/02 05:04:35;;;;;;;;;37.75;27.75;;;;;14.33;73.79;102129.88;5019391;28;46259;-74
2021/09/02 05:07:00;;;;;;;;;28.67;24.67;;;;;14.27;74.30;102115.09;5035609;28;51957;-74
2021/09/02 05:09:26;;;;;;;;;36.33;29.00;;;;;14.32;74.40;102129.00;5023000;28;53038;-74
2021/09/02 05:11:51;;;;;;;;;35.25;31.75;;;;;14.31;74.35;102124.66;5043157;28;45779;-75
2021/09/02 05:14:16;;;;;;;;;35.50;29.00;;;;;14.29;74.27;102110.59;5034523;28;47182;-74
2021/09/02 05:16:42;;;;;;;;;36.75;31.00;;;;;14.29;73.99;102113.25;5035384;28;45500;-74
2021/09/02 05:19:07;;;;;;;;;41.25;33.00;;;;;14.26;73.62;102099.28;5036563;28;45417;-74
2021/09/02 05:21:32;;;;;;;;;44.75;33.75;;;;;14.29;73.91;102113.25;5038322;28;46204;-74
2021/09/02 05:23:57;;;;;;;;;51.75;35.50;;;;;14.26;74.67;102115.16;5040053;28;45501;-74
2021/09/02 05:26:23;;;;;;;;;35.50;29.50;;;;;14.30;74.70;102117.66;5034757;28;45333;-73
2021/09/02 05:28:48;;;;;;;;;39.50;35.50;;;;;14.27;73.56;102108.94;5035325;28;45573;-75
2021/09/02 05:31:13;;;;;;;;;43.50;32.75;;;;;14.34;74.16;102113.94;5034980;28;50883;-75
2021/09/02 05:33:39;;;;;;;;;46.00;32.25;;;;;14.26;74.23;102100.16;5034846;28;45458;-74
2021/09/02 05:36:04;;;;;;;;;44.75;35.50;;;;;14.37;74.48;102112.97;5015856;28;45536;-74
2021/09/02 05:38:30;;;;;;;;;36.75;29.50;;;;;14.31;74.23;102103.50;5034901;28;45543;-74
2021/09/02 05:40:55;;;;;;;;;38.25;33.50;;;;;14.41;74.22;102111.06;5037910;28;46217;-74
2021/09/02 05:43:21;;;;;;;;;37.25;31.00;;;;;14.43;74.11;102110.09;5017536;28;45463;-74
2021/09/02 05:45:46;;;;;;;;;43.25;34.25;;;;;14.42;74.33;102110.16;5033333;28;45557;-74
2021/09/02 05:48:12;;;;;;;;;40.75;30.75;;;;;14.35;74.42;102099.81;5034729;28;53903;-76
2021/09/02 05:50:37;;;;;;;;;39.50;29.75;;;;;14.51;74.18;102131.00;5037200;28;47493;-77
2021/09/02 05:53:02;;;;;;;;;38.25;31.00;;;;;14.55;73.99;102128.19;5044648;28;45344;-76
2021/09/02 05:55:28;;;;;;;;;37.25;32.50;;;;;14.59;73.67;102123.66;5035289;28;45485;-76
2021/09/02 05:57:53;;;;;;;;;43.00;32.75;;;;;14.60;74.00;102120.09;5035439;28;45589;-77
2021/09/02 06:00:19;;;;;;;;;31.00;26.25;;;;;14.61;74.13;102109.44;5033540;28;45596;-76
2021/09/02 06:02:44;;;;;;;;;39.00;32.75;;;;;14.71;73.84;102114.38;5032157;28;45542;-75
2021/09/02 06:05:10;;;;;;;;;39.25;28.50;;;;;14.78;74.06;102121.19;5023837;28;45440;-76
2021/09/02 06:07:35;;;;;;;;;39.25;29.75;;;;;14.83;73.80;102120.09;5034931;28;45383;-74
2021/09/02 06:10:01;;;;;;;;;33.00;28.75;;;;;14.88;73.69;102123.41;5034783;28;45379;-75
2021/09/02 06:12:26;;;;;;;;;33.75;28.50;;;;;14.90;73.36;102117.19;5042457;28;45350;-75
2021/09/02 06:14:51;;;;;;;;;36.25;30.25;;;;;14.87;72.95;102107.56;5034195;28;45439;-75
2021/09/02 06:17:17;;;;;;;;;35.00;29.50;;;;;15.02;73.43;102129.94;5034570;28;47470;-75
2021/09/02 06:19:42;;;;;;;;;33.75;29.50;;;;;15.04;73.02;102123.69;5035470;28;45347;-75
2021/09/02 06:22:07;;;;;;;;;34.33;29.00;;;;;15.13;72.95;102130.38;5033999;28;53507;-75
2021/09/02 06:24:33;;;;;;;;;34.25;24.25;;;;;15.13;73.08;102122.44;5033991;28;45559;-75
2021/09/02 06:26:58;;;;;;;;;33.00;26.75;;;;;15.23;72.61;102130.88;5034790;28;45506;-75
2021/09/02 06:29:24;;;;;;;;;37.75;28.25;;;;;15.28;72.44;102129.75;5033621;28;46005;-75
2021/09/02 06:31:50;;;;;;;;;37.00;28.50;;;;;15.34;72.67;102132.16;5041506;28;49162;-75
2021/09/02 06:34:15;;;;;;;;;40.75;30.50;;;;;15.43;72.40;102132.72;5033800;28;45491;-75
2021/09/02 06:36:40;;;;;;;;;40.00;28.25;;;;;15.51;72.35;102130.63;5032677;28;45757;-77
2021/09/02 06:39:06;;;;;;;;;38.25;26.50;;;;;15.43;72.29;102103.59;5030408;28;45613;-74
2021/09/02 06:41:31;;;;;;;;;35.75;28.25;;;;;15.53;71.69;102107.56;5032491;28;46038;-75
2021/09/02 06:43:56;;;;;;;;;33.00;27.25;;;;;15.85;71.74;102138.91;5028173;28;45632;-75
2021/09/02 06:46:22;;;;;;;;;39.75;28.25;;;;;15.94;71.00;102136.81;5012704;28;45448;-75
2021/09/02 06:48:47;;;;;;;;;42.25;27.75;;;;;15.83;70.55;102108.97;5029879;28;46008;-75
2021/09/02 06:51:12;;;;;;;;;32.50;25.75;;;;;16.06;70.64;102123.84;5030620;28;45823;-74
2021/09/02 06:53:37;;;;;;;;;40.00;26.50;;;;;16.06;70.69;102107.09;5030644;28;45627;-75
2021/09/02 06:56:03;;;;;;;;;41.25;26.75;;;;;16.40;70.33;102133.84;5028392;28;53158;-74
2021/09/02 06:58:28;;;;;;;;;36.50;28.50;;;;;16.62;70.08;102135.53;5036236;28;46011;-76
2021/09/02 07:00:54;;;;;;;;;30.00;24.50;;;;;16.84;70.01;102146.03;5028684;28;57141;-76
2021/09/02 07:03:19;;;;;;;;;36.50;29.50;;;;;17.22;69.33;102130.91;5029421;28;50163;-75
2021/09/02 07:05:44;;;;;;;;;32.50;28.00;;;;;17.61;68.53;102132.56;5030484;28;45738;-75
2021/09/02 07:08:10;;;;;;;;;32.75;28.25;;;;;18.05;67.18;102132.09;5035205;28;45389;-75
2021/09/02 07:10:36;;;;;;;;;35.50;27.50;;;;;18.26;66.98;102125.66;5033316;28;45486;-75
2021/09/02 07:13:01;;;;;;;;;32.50;29.00;;;;;18.23;66.55;102128.50;5039555;28;45920;-75
2021/09/02 07:15:27;;;;;;;;;36.50;29.00;;;;;18.14;65.54;102132.50;5034842;28;45460;-75
2021/09/02 07:17:52;;;;;;;;;39.25;30.00;;;;;17.97;65.58;102119.22;5035496;28;46492;-75
2021/09/02 07:20:17;;;;;;;;;30.00;25.00;;;;;17.94;66.08;102133.53;5033424;28;55944;-75
2021/09/02 07:22:43;;;;;;;;;43.50;31.00;;;;;17.90;66.30;102131.94;5034385;28;45459;-76
2021/09/02 07:25:08;;;;;;;;;36.00;28.00;;;;;17.89;65.89;102143.53;5016667;28;59804;-75
2021/09/02 07:27:34;;;;;;;;;35.50;27.75;;;;;17.89;65.95;102140.88;5038412;28;47002;-75
2021/09/02 07:29:59;;;;;;;;;38.50;29.25;;;;;18.04;65.82;102149.88;5042130;28;45502;-76
2021/09/02 07:32:26;;;;;;;;;25.75;22.50;;;;;18.12;65.48;102149.50;5035053;28;45321;-75
2021/09/02 07:34:51;;;;;;;;;34.00;25.00;;;;;18.25;65.49;102148.75;5022146;28;45482;-75
2021/09/02 07:37:17;;;;;;;;;33.25;27.00;;;;;18.31;65.73;102155.53;5038479;28;45467;-75
2021/09/02 07:39:42;;;;;;;;;23.50;22.00;;;;;18.42;65.04;102155.81;5039803;28;45490;-74
2021/09/02 07:42:08;;;;;;;;;37.00;27.75;;;;;18.45;65.20;102152.16;5039238;28;45639;-75
2021/09/02 07:44:34;;;;;;;;;32.25;26.25;;;;;18.44;65.22;102140.66;5032601;28;45427;-76
2021/09/02 07:46:59;;;;;;;;;34.50;25.00;;;;;18.52;64.63;102146.41;5032423;28;46383;-75
2021/09/02 07:49:25;;;;;;;;;25.00;20.75;;;;;18.61;64.37;102146.88;5031873;28;45478;-75
2021/09/02 07:51:50;;;;;;;;;34.00;27.00;;;;;18.73;64.68;102135.56;5039413;28;45883;-76
2021/09/02 07:54:15;;;;;;;;;37.50;26.00;;;;;18.84;63.93;102135.81;5033046;28;45602;-76
2021/09/02 07:56:41;;;;;;;;;35.75;29.75;;;;;18.94;64.27;102131.72;5031288;28;56622;-76
2021/09/02 07:59:06;;;;;;;;;31.00;21.00;;;;;19.10;64.08;102130.84;5032038;28;46258;-76
2021/09/02 08:01:32;;;;;;;;;30.00;23.25;;;;;19.26;64.20;102115.69;5035910;28;45841;-75
2021/09/02 08:03:57;;;;;;;;;33.00;26.50;;;;;19.87;63.18;102135.28;5033238;28;45639;-75
2021/09/02 08:06:22;;;;;;;;;33.50;24.25;;;;;20.15;61.72;102124.69;5032856;28;45388;-76
2021/09/02 08:08:48;;;;;;;;;29.25;23.25;;;;;20.53;62.67;102127.66;5035534;28;51541;-76
2021/09/02 08:11:14;;;;;;;;;32.25;26.25;;;;;21.29;60.91;102131.69;5043184;28;45339;-76
2021/09/02 08:13:39;;;;;;;;;34.25;21.00;;;;;21.42;59.82;102126.44;5032588;28;45468;-76
2021/09/02 08:16:05;;;;;;;;;29.75;24.50;;;;;21.32;59.64;102119.00;5033053;28;46189;-76
2021/09/02 08:18:30;;;;;;;;;29.50;23.75;;;;;21.42;58.90;102121.94;5031939;28;45867;-75
2021/09/02 08:20:56;;;;;;;;;29.00;23.75;;;;;21.47;58.47;102130.50;5032409;28;45388;-76
2021/09/02 08:23:21;;;;;;;;;33.25;25.25;;;;;21.68;58.40;102128.22;5032428;28;45522;-74
2021/09/02 08:25:46;;;;;;;;;27.75;25.50;;;;;21.80;57.68;102111.31;5034379;28;46181;-76
2021/09/02 08:28:12;;;;;;;;;30.75;25.25;;;;;22.71;58.30;102113.00;5036270;28;45388;-76
2021/09/02 08:30:37;;;;;;;;;29.00;26.00;;;;;23.95;57.08;102115.34;5035529;28;45577;-77
2021/09/02 08:33:03;;;;;;;;;26.25;20.50;;;;;25.46;55.35;102108.47;5036156;28;45570;-76
2021/09/02 08:35:30;;;;;;;;;24.25;21.25;;;;;27.17;54.63;102114.16;5035508;28;48487;-77
2021/09/02 08:37:59;;;;;;;;;25.25;20.50;;;;;28.37;50.38;102103.78;5035907;28;46275;-73
2021/09/02 08:40:28;;;;;;;;;25.25;20.75;;;;;29.29;48.58;102103.66;5035924;28;45471;-76
2021/09/02 08:42:54;;;;;;;;;27.75;23.75;;;;;31.09;48.69;102099.25;5036517;28;45518;-76
2021/09/02 08:45:21;;;;;;;;;27.75;21.75;;;;;33.34;45.48;102098.94;5035333;28;45690;-77
2021/09/02 08:47:48;;;;;;;;;28.00;21.25;;;;;35.23;41.64;102098.44;5035616;28;45538;-77
2021/09/02 08:50:16;;;;;;;;;24.25;19.25;;;;;36.54;39.12;102097.75;5036158;28;45609;-77
2021/09/02 08:52:42;;;;;;;;;25.25;21.50;;;;;37.80;36.22;102083.34;5035776;28;45600;-75
2021/09/02 08:55:09;;;;;;;;;22.50;20.50;;;;;38.64;37.09;102083.31;5035618;28;45995;-75
2021/09/02 08:57:34;;;;;;;;;22.75;21.75;;;;;39.30;34.48;102089.47;5034920;28;45350;-75
2021/09/02 09:00:00;;;;;;;;;21.75;20.25;;;;;39.26;32.18;102093.72;5035331;28;45551;-75
2021/09/02 09:02:28;;;;;;;;;18.75;18.25;;;;;38.88;31.69;102102.84;5017385;28;45432;-75
2021/09/02 09:05:11;;;;;;;;;23.75;20.00;;;;;38.53;31.24;102099.63;5031575;28;46405;-75
2021/09/02 09:07:42;;;;;;;;;22.75;20.00;;;;;38.28;33.18;102096.75;5034669;28;45829;-75
2021/09/02 09:10:12;;;;;;;;;25.25;21.25;;;;;37.88;31.61;102096.88;5035526;28;45535;-74
2021/09/02 09:12:43;;;;;;;;;18.50;17.00;;;;;37.43;31.49;102099.41;5035545;28;45474;-75
2021/09/02 09:15:16;;;;;;;;;18.00;17.25;;;;;37.28;32.09;102098.75;5041146;28;47871;-75
2021/09/02 09:17:41;;;;;;;;;20.00;15.50;;;;;37.02;32.04;102099.56;5036364;28;45655;-74
2021/09/02 09:20:07;;;;;;;;;21.75;16.25;;;;;36.84;32.67;102091.91;5041472;28;45381;-74
2021/09/02 09:22:34;;;;;;;;;20.25;19.75;;;;;36.39;31.63;102090.66;5034907;28;45322;-75
2021/09/02 09:25:01;;;;;;;;;20.00;16.75;;;;;35.87;32.93;102087.44;5035499;28;45308;-75
2021/09/02 09:27:50;;;;;;;;;24.00;17.00;;;;;35.36;32.93;102076.72;5035192;28;45354;-74
2021/09/02 09:30:38;;;;;;;;;23.00;18.75;;;;;34.94;32.99;102067.50;5035173;28;45733;-74
2021/09/02 09:33:05;;;;;;;;;18.75;18.75;;;;;34.60;33.23;102070.00;5038412;28;45630;-75
2021/09/02 09:35:36;;;;;;;;;21.75;19.00;;;;;34.38;33.06;102061.75;5043896;28;46279;-74
2021/09/02 09:38:07;;;;;;;;;19.00;16.50;;;;;34.22;33.23;102065.53;5034591;28;45787;-75
2021/09/02 09:40:34;;;;;;;;;21.00;16.75;;;;;34.17;33.71;102067.16;5045671;28;45375;-75
2021/09/02 09:43:13;;;;;;;;;20.25;18.25;;;;;34.15;33.92;102064.63;5037611;28;45487;-75
2021/09/02 09:45:47;;;;;;;;;22.00;20.00;;;;;34.07;33.97;102072.03;5038233;28;46255;-76
2021/09/02 09:48:32;;;;;;;;;19.50;18.25;;;;;33.61;33.83;102064.81;5038627;28;45777;-75
2021/09/02 09:51:10;;;;;;;;;21.00;18.25;;;;;33.36;34.68;102061.47;5039568;28;45522;-75
2021/09/02 09:53:36;;;;;;;;;23.50;20.00;;;;;33.14;34.14;102060.44;5038690;28;45396;-75
2021/09/02 09:56:03;;;;;;;;;23.50;21.00;;;;;32.97;34.65;102056.16;5035062;28;45460;-75
2021/09/02 09:58:28;;;;;;;;;17.50;16.00;;;;;32.92;34.89;102056.69;5035055;28;45691;-75
2021/09/02 10:00:58;;;;;;;;;20.00;19.25;;;;;32.92;33.81;102058.59;5036962;28;45723;-75
2021/09/02 10:03:23;;;;;;;;;18.25;16.75;;;;;32.97;33.94;102059.72;5034442;28;45470;-75
2021/09/02 10:05:49;;;;;;;;;19.50;17.25;;;;;33.10;34.49;102056.41;5034893;28;45440;-75
2021/09/02 10:08:16;;;;;;;;;14.50;13.75;;;;;33.21;34.17;102049.69;5036304;28;45662;-74
2021/09/02 10:10:42;;;;;;;;;19.75;16.25;;;;;33.55;33.67;102051.94;5042816;28;45570;-75
2021/09/02 10:13:08;;;;;;;;;22.00;17.50;;;;;33.85;33.43;102043.81;5036135;28;45608;-75
2021/09/02 10:15:34;;;;;;;;;19.25;17.75;;;;;34.16;33.61;102055.38;5033835;28;46480;-75
2021/09/02 10:18:00;;;;;;;;;16.50;13.50;;;;;34.38;33.08;102050.00;5037726;28;45450;-75
2021/09/02 10:20:28;;;;;;;;;18.00;16.25;;;;;34.44;32.29;102049.22;5033344;28;45507;-75
2021/09/02 10:23:04;;;;;;;;;14.25;13.50;;;;;33.97;32.56;102048.63;5033012;28;45460;-75
2021/09/02 10:25:29;;;;;;;;;16.50;15.25;;;;;33.39;32.76;102039.28;5031277;28;45894;-75
2021/09/02 10:28:34;;;;;;;;;19.00;15.00;;;;;32.84;34.25;102036.84;5033865;28;45393;-75
2021/09/02 10:31:02;;;;;;;;;14.75;13.00;;;;;32.40;34.62;102021.09;5037893;28;45647;-75
2021/09/02 10:33:44;;;;;;;;;15.50;15.50;;;;;32.14;34.86;102011.34;5019215;28;45404;-75
2021/09/02 10:36:10;;;;;;;;;17.75;16.00;;;;;32.09;34.85;102027.34;5033551;28;46056;-75
2021/09/02 10:38:50;;;;;;;;;13.50;13.50;;;;;31.80;34.95;102017.06;5036308;28;46254;-75
2021/09/02 10:41:36;;;;;;;;;21.75;15.50;;;;;31.72;35.53;102017.06;5029397;28;45465;-75
2021/09/02 10:44:02;;;;;;;;;17.25;16.50;;;;;31.74;35.78;102023.19;5018924;28;45622;-75
2021/09/02 10:46:30;;;;;;;;;17.50;17.00;;;;;31.61;35.62;102017.44;5037017;28;47388;-76
2021/09/02 10:49:40;;;;;;;;;19.25;13.00;;;;;31.44;35.72;102022.91;5035060;28;45658;-75
2021/09/02 10:52:24;;;;;;;;;18.25;13.50;;;;;31.31;35.99;102025.28;5034311;28;45491;-75
2021/09/02 10:54:50;;;;;;;;;16.50;14.75;;;;;31.15;35.92;102031.53;5033985;28;45379;-75
2021/09/02 10:57:15;;;;;;;;;19.50;17.00;;;;;31.16;36.51;102022.34;5035517;28;45495;-75
2021/09/02 10:59:48;;;;;;;;;16.75;16.00;;;;;31.27;36.14;102028.50;5043068;28;45451;-75
2021/09/02 11:02:17;;;;;;;;;16.25;14.00;;;;;31.25;36.28;102035.94;5034092;28;45553;-75
2021/09/02 11:04:43;;;;;;;;;13.25;12.00;;;;;31.15;35.99;102034.25;5034493;28;45437;-77
2021/09/02 11:07:08;;;;;;;;;15.50;14.75;;;;;31.03;36.22;102019.31;5034012;28;49374;-73